sensor_id;sensor_type;location;lat;lon;timestamp;P1;durP1;ratioP1;P2;durP2;ratioP2
18881;SDS011;9573;50.948;11.600;2022-08-21T00:01:59;42.70;;;19.83;;
18881;SDS011;9573;50.948;11.600;2022-08-21T00:04:26;38.03;;;19.47;;
18881;SDS011;9573;50.948;11.600;2022-08-21T00:06:53;39.37;;;19.17;;
18881;SDS011;9573;50.948;11.600;2022-08-21T00:09:20;41.63;;;19.73;;
18881;SDS011;9573;50.948;11.600;2022-08-21T00:11:48;43.43;;;19.93;;
18881;SDS011;9573;50.948;11.600;2022-08-21T00:14:16;42.17;;;19.83;;
18881;SDS011;9573;50.948;11.600;2022-08-21T00:16:43;42.77;;;20.73;;
18881;SDS011;9573;50.948;11.600;2022-08-21T00:19:10;36.30;;;19.70;;
18881;SDS011;9573;50.948;11.600;2022-08-21T00:21:38;37.43;;;19.23;;
18881;SDS011;9573;50.948;11.600;2022-08-21T00:24:05;39.60;;;19.77;;
18881;SDS011;9573;50.948;11.600;2022-08-21T00:26:32;37.93;;;19.60;;
18881;SDS011;9573;50.948;11.600;2022-08-21T00:29:00;36.27;;;18.60;;
18881;SDS011;9573;50.948;11.600;2022-08-21T00:31:28;34.53;;;17.83;;
18881;SDS011;9573;50.948;11.600;2022-08-21T00:33:55;35.20;;;18.30;;
18881;SDS011;9573;50.948;11.600;2022-08-21T00:36:22;35.43;;;18.90;;
18881;SDS011;9573;50.948;11.600;2022-08-21T00:38:49;37.77;;;18.93;;
18881;SDS011;9573;50.948;11.600;2022-08-21T00:41:17;39.33;;;18.87;;
18881;SDS011;9573;50.948;11.600;2022-08-21T00:43:44;37.83;;;19.37;;
18881;SDS011;9573;50.948;11.600;2022-08-21T00:46:11;37.37;;;19.07;;
18881;SDS011;9573;50.948;11.600;2022-08-21T00:48:40;36.87;;;19.27;;
18881;SDS011;9573;50.948;11.600;2022-08-21T00:51:09;39.20;;;19.33;;
18881;SDS011;9573;50.948;11.600;2022-08-21T00:53:40;39.53;;;19.40;;
18881;SDS011;9573;50.948;11.600;2022-08-21T00:56:09;40.07;;;19.73;;
18881;SDS011;9573;50.948;11.600;2022-08-21T00:58:38;38.50;;;19.00;;
18881;SDS011;9573;50.948;11.600;2022-08-21T01:01:08;41.00;;;19.53;;
18881;SDS011;9573;50.948;11.600;2022-08-21T01:03:36;40.13;;;20.23;;
18881;SDS011;9573;50.948;11.600;2022-08-21T01:06:05;46.37;;;20.93;;
18881;SDS011;9573;50.948;11.600;2022-08-21T01:08:34;42.33;;;21.00;;
18881;SDS011;9573;50.948;11.600;2022-08-21T01:11:02;41.57;;;20.53;;
18881;SDS011;9573;50.948;11.600;2022-08-21T01:13:32;40.67;;;20.57;;
18881;SDS011;9573;50.948;11.600;2022-08-21T01:16:05;44.13;;;22.67;;
18881;SDS011;9573;50.948;11.600;2022-08-21T01:18:35;49.27;;;23.80;;
18881;SDS011;9573;50.948;11.600;2022-08-21T01:21:05;54.20;;;24.33;;
18881;SDS011;9573;50.948;11.600;2022-08-21T01:23:35;52.47;;;25.17;;
18881;SDS011;9573;50.948;11.600;2022-08-21T01:26:05;49.60;;;25.37;;
18881;SDS011;9573;50.948;11.600;2022-08-21T01:28:35;53.70;;;26.47;;
18881;SDS011;9573;50.948;11.600;2022-08-21T01:31:08;49.90;;;25.33;;
18881;SDS011;9573;50.948;11.600;2022-08-21T01:33:38;50.77;;;24.67;;
18881;SDS011;9573;50.948;11.600;2022-08-21T01:36:07;53.37;;;25.33;;
18881;SDS011;9573;50.948;11.600;2022-08-21T01:38:34;52.03;;;25.90;;
18881;SDS011;9573;50.948;11.600;2022-08-21T01:41:02;51.30;;;24.93;;
18881;SDS011;9573;50.948;11.600;2022-08-21T01:43:29;51.00;;;26.07;;
18881;SDS011;9573;50.948;11.600;2022-08-21T01:45:56;52.50;;;26.23;;
18881;SDS011;9573;50.948;11.600;2022-08-21T01:48:23;53.97;;;27.13;;
18881;SDS011;9573;50.948;11.600;2022-08-21T01:50:50;54.30;;;27.10;;
18881;SDS011;9573;50.948;11.600;2022-08-21T01:53:19;53.57;;;26.83;;
18881;SDS011;9573;50.948;11.600;2022-08-21T01:55:46;56.90;;;28.10;;
18881;SDS011;9573;50.948;11.600;2022-08-21T01:58:13;55.87;;;27.73;;
18881;SDS011;9573;50.948;11.600;2022-08-21T02:00:40;65.73;;;29.13;;
18881;SDS011;9573;50.948;11.600;2022-08-21T02:03:08;57.13;;;27.80;;
18881;SDS011;9573;50.948;11.600;2022-08-21T02:05:35;60.50;;;28.33;;
18881;SDS011;9573;50.948;11.600;2022-08-21T02:08:03;61.17;;;28.87;;
18881;SDS011;9573;50.948;11.600;2022-08-21T02:10:33;56.63;;;28.93;;
18881;SDS011;9573;50.948;11.600;2022-08-21T02:13:01;55.60;;;28.37;;
18881;SDS011;9573;50.948;11.600;2022-08-21T02:15:28;63.70;;;28.97;;
18881;SDS011;9573;50.948;11.600;2022-08-21T02:17:57;60.67;;;28.83;;
18881;SDS011;9573;50.948;11.600;2022-08-21T02:20:31;59.60;;;28.03;;
18881;SDS011;9573;50.948;11.600;2022-08-21T02:23:01;58.67;;;28.33;;
18881;SDS011;9573;50.948;11.600;2022-08-21T02:25:30;60.83;;;28.90;;
18881;SDS011;9573;50.948;11.600;2022-08-21T02:27:59;58.27;;;27.97;;
18881;SDS011;9573;50.948;11.600;2022-08-21T02:30:31;59.63;;;27.67;;
18881;SDS011;9573;50.948;11.600;2022-08-21T02:33:03;56.13;;;27.67;;
18881;SDS011;9573;50.948;11.600;2022-08-21T02:35:30;61.60;;;29.03;;
18881;SDS011;9573;50.948;11.600;2022-08-21T02:37:58;64.83;;;29.20;;
18881;SDS011;9573;50.948;11.600;2022-08-21T02:40:30;60.77;;;29.13;;
18881;SDS011;9573;50.948;11.600;2022-08-21T02:43:02;58.87;;;29.47;;
18881;SDS011;9573;50.948;11.600;2022-08-21T02:45:31;63.47;;;31.10;;
18881;SDS011;9573;50.948;11.600;2022-08-21T02:47:59;63.70;;;30.00;;
18881;SDS011;9573;50.948;11.600;2022-08-21T02:50:31;62.40;;;30.40;;
18881;SDS011;9573;50.948;11.600;2022-08-21T02:53:01;63.93;;;31.40;;
18881;SDS011;9573;50.948;11.600;2022-08-21T02:55:31;65.37;;;31.43;;
18881;SDS011;9573;50.948;11.600;2022-08-21T02:58:02;58.17;;;29.07;;
18881;SDS011;9573;50.948;11.600;2022-08-21T03:00:31;59.93;;;28.67;;
18881;SDS011;9573;50.948;11.600;2022-08-21T03:03:00;60.67;;;30.30;;
18881;SDS011;9573;50.948;11.600;2022-08-21T03:05:30;60.40;;;27.73;;
18881;SDS011;9573;50.948;11.600;2022-08-21T03:07:59;61.57;;;28.83;;
18881;SDS011;9573;50.948;11.600;2022-08-21T03:10:29;65.17;;;29.53;;
18881;SDS011;9573;50.948;11.600;2022-08-21T03:12:56;62.57;;;29.37;;
18881;SDS011;9573;50.948;11.600;2022-08-21T03:15:25;68.67;;;30.53;;
18881;SDS011;9573;50.948;11.600;2022-08-21T03:17:53;64.40;;;30.53;;
18881;SDS011;9573;50.948;11.600;2022-08-21T03:20:21;67.37;;;29.50;;
18881;SDS011;9573;50.948;11.600;2022-08-21T03:22:51;68.13;;;29.77;;
18881;SDS011;9573;50.948;11.600;2022-08-21T03:25:19;59.40;;;28.03;;
18881;SDS011;9573;50.948;11.600;2022-08-21T03:27:47;66.40;;;29.40;;
18881;SDS011;9573;50.948;11.600;2022-08-21T03:30:16;58.70;;;27.83;;
18881;SDS011;9573;50.948;11.600;2022-08-21T03:32:47;59.90;;;26.83;;
18881;SDS011;9573;50.948;11.600;2022-08-21T03:35:15;56.30;;;27.67;;
18881;SDS011;9573;50.948;11.600;2022-08-21T03:37:43;59.03;;;26.70;;
18881;SDS011;9573;50.948;11.600;2022-08-21T03:40:13;57.33;;;27.17;;
18881;SDS011;9573;50.948;11.600;2022-08-21T03:42:43;62.87;;;27.87;;
18881;SDS011;9573;50.948;11.600;2022-08-21T03:45:12;60.00;;;27.40;;
18881;SDS011;9573;50.948;11.600;2022-08-21T03:47:51;61.87;;;27.77;;
18881;SDS011;9573;50.948;11.600;2022-08-21T03:50:21;59.20;;;27.77;;
18881;SDS011;9573;50.948;11.600;2022-08-21T03:52:48;63.50;;;28.40;;
18881;SDS011;9573;50.948;11.600;2022-08-21T03:55:16;62.40;;;26.17;;
18881;SDS011;9573;50.948;11.600;2022-08-21T03:57:43;57.60;;;27.27;;
18881;SDS011;9573;50.948;11.600;2022-08-21T04:00:11;58.63;;;26.80;;
18881;SDS011;9573;50.948;11.600;2022-08-21T04:02:42;61.57;;;27.30;;
18881;SDS011;9573;50.948;11.600;2022-08-21T04:05:11;61.07;;;26.83;;
18881;SDS011;9573;50.948;11.600;2022-08-21T04:07:52;67.23;;;28.37;;
18881;SDS011;9573;50.948;11.600;2022-08-21T04:10:23;74.10;;;28.73;;
18881;SDS011;9573;50.948;11.600;2022-08-21T04:12:52;73.80;;;28.33;;
18881;SDS011;9573;50.948;11.600;2022-08-21T04:15:20;70.07;;;29.33;;
18881;SDS011;9573;50.948;11.600;2022-08-21T04:17:48;68.80;;;27.30;;
18881;SDS011;9573;50.948;11.600;2022-08-21T04:20:18;66.30;;;27.53;;
18881;SDS011;9573;50.948;11.600;2022-08-21T04:22:46;69.50;;;27.83;;
18881;SDS011;9573;50.948;11.600;2022-08-21T04:25:15;65.67;;;27.47;;
18881;SDS011;9573;50.948;11.600;2022-08-21T04:27:45;70.00;;;28.27;;
18881;SDS011;9573;50.948;11.600;2022-08-21T04:30:12;72.90;;;29.50;;
18881;SDS011;9573;50.948;11.600;2022-08-21T04:32:42;79.20;;;28.50;;
18881;SDS011;9573;50.948;11.600;2022-08-21T04:35:11;77.97;;;30.57;;
18881;SDS011;9573;50.948;11.600;2022-08-21T04:37:42;75.17;;;29.93;;
18881;SDS011;9573;50.948;11.600;2022-08-21T04:40:10;76.33;;;29.57;;
18881;SDS011;9573;50.948;11.600;2022-08-21T04:42:42;76.20;;;28.80;;
18881;SDS011;9573;50.948;11.600;2022-08-21T04:45:15;74.13;;;29.10;;
18881;SDS011;9573;50.948;11.600;2022-08-21T04:47:47;68.97;;;29.40;;
18881;SDS011;9573;50.948;11.600;2022-08-21T04:50:15;69.33;;;29.03;;
18881;SDS011;9573;50.948;11.600;2022-08-21T04:52:45;70.70;;;29.07;;
18881;SDS011;9573;50.948;11.600;2022-08-21T04:55:13;71.77;;;29.47;;
18881;SDS011;9573;50.948;11.600;2022-08-21T04:57:42;63.23;;;27.20;;
18881;SDS011;9573;50.948;11.600;2022-08-21T05:00:10;64.23;;;26.87;;
18881;SDS011;9573;50.948;11.600;2022-08-21T05:02:39;65.67;;;27.47;;
18881;SDS011;9573;50.948;11.600;2022-08-21T05:05:07;64.30;;;27.97;;
18881;SDS011;9573;50.948;11.600;2022-08-21T05:07:35;56.37;;;25.57;;
18881;SDS011;9573;50.948;11.600;2022-08-21T05:10:05;57.10;;;25.87;;
18881;SDS011;9573;50.948;11.600;2022-08-21T05:12:33;59.87;;;25.47;;
18881;SDS011;9573;50.948;11.600;2022-08-21T05:15:02;58.10;;;26.97;;
18881;SDS011;9573;50.948;11.600;2022-08-21T05:17:30;52.87;;;24.87;;
18881;SDS011;9573;50.948;11.600;2022-08-21T05:19:57;50.87;;;24.40;;
18881;SDS011;9573;50.948;11.600;2022-08-21T05:22:24;48.93;;;24.47;;
18881;SDS011;9573;50.948;11.600;2022-08-21T05:24:51;50.90;;;24.50;;
18881;SDS011;9573;50.948;11.600;2022-08-21T05:27:20;52.43;;;24.23;;
18881;SDS011;9573;50.948;11.600;2022-08-21T05:29:47;49.47;;;23.20;;
18881;SDS011;9573;50.948;11.600;2022-08-21T05:32:14;50.47;;;24.13;;
18881;SDS011;9573;50.948;11.600;2022-08-21T05:34:42;45.17;;;22.93;;
18881;SDS011;9573;50.948;11.600;2022-08-21T05:37:10;43.43;;;22.03;;
18881;SDS011;9573;50.948;11.600;2022-08-21T05:39:38;43.80;;;21.60;;
18881;SDS011;9573;50.948;11.600;2022-08-21T05:42:05;44.67;;;21.90;;
18881;SDS011;9573;50.948;11.600;2022-08-21T05:44:34;43.33;;;21.60;;
18881;SDS011;9573;50.948;11.600;2022-08-21T05:47:04;46.33;;;23.23;;
18881;SDS011;9573;50.948;11.600;2022-08-21T05:49:33;45.83;;;21.93;;
18881;SDS011;9573;50.948;11.600;2022-08-21T05:52:01;43.40;;;22.13;;
18881;SDS011;9573;50.948;11.600;2022-08-21T05:54:30;45.97;;;22.57;;
18881;SDS011;9573;50.948;11.600;2022-08-21T05:56:57;43.13;;;22.73;;
18881;SDS011;9573;50.948;11.600;2022-08-21T05:59:25;46.50;;;22.13;;
18881;SDS011;9573;50.948;11.600;2022-08-21T06:01:54;47.07;;;22.57;;
18881;SDS011;9573;50.948;11.600;2022-08-21T06:04:21;45.67;;;21.87;;
18881;SDS011;9573;50.948;11.600;2022-08-21T06:06:48;47.53;;;22.47;;
18881;SDS011;9573;50.948;11.600;2022-08-21T06:09:15;48.37;;;23.27;;
18881;SDS011;9573;50.948;11.600;2022-08-21T06:11:42;51.23;;;24.93;;
18881;SDS011;9573;50.948;11.600;2022-08-21T06:14:09;48.57;;;23.27;;
18881;SDS011;9573;50.948;11.600;2022-08-21T06:16:39;48.20;;;22.50;;
18881;SDS011;9573;50.948;11.600;2022-08-21T06:19:08;45.17;;;22.63;;
18881;SDS011;9573;50.948;11.600;2022-08-21T06:21:35;45.87;;;22.80;;
18881;SDS011;9573;50.948;11.600;2022-08-21T06:24:02;44.47;;;22.33;;
18881;SDS011;9573;50.948;11.600;2022-08-21T06:26:32;44.00;;;22.43;;
18881;SDS011;9573;50.948;11.600;2022-08-21T06:28:59;40.37;;;21.37;;
18881;SDS011;9573;50.948;11.600;2022-08-21T06:31:27;43.73;;;21.70;;
18881;SDS011;9573;50.948;11.600;2022-08-21T06:33:54;43.10;;;20.70;;
18881;SDS011;9573;50.948;11.600;2022-08-21T06:36:23;37.97;;;19.97;;
18881;SDS011;9573;50.948;11.600;2022-08-21T06:38:51;39.67;;;20.27;;
18881;SDS011;9573;50.948;11.600;2022-08-21T06:41:18;42.07;;;21.57;;
18881;SDS011;9573;50.948;11.600;2022-08-21T06:43:46;39.70;;;20.67;;
18881;SDS011;9573;50.948;11.600;2022-08-21T06:46:13;39.57;;;20.63;;
18881;SDS011;9573;50.948;11.600;2022-08-21T06:48:40;37.93;;;18.97;;
18881;SDS011;9573;50.948;11.600;2022-08-21T06:51:07;39.40;;;19.40;;
18881;SDS011;9573;50.948;11.600;2022-08-21T06:53:36;43.23;;;21.57;;
18881;SDS011;9573;50.948;11.600;2022-08-21T06:56:03;44.37;;;22.33;;
18881;SDS011;9573;50.948;11.600;2022-08-21T06:58:31;42.07;;;22.57;;
18881;SDS011;9573;50.948;11.600;2022-08-21T07:00:58;43.10;;;22.70;;
18881;SDS011;9573;50.948;11.600;2022-08-21T07:03:27;45.70;;;22.97;;
18881;SDS011;9573;50.948;11.600;2022-08-21T07:05:56;41.13;;;22.13;;
18881;SDS011;9573;50.948;11.600;2022-08-21T07:08:24;50.23;;;24.53;;
18881;SDS011;9573;50.948;11.600;2022-08-21T07:10:53;49.77;;;24.90;;
18881;SDS011;9573;50.948;11.600;2022-08-21T07:13:22;48.53;;;24.87;;
18881;SDS011;9573;50.948;11.600;2022-08-21T07:15:50;48.70;;;24.20;;
18881;SDS011;9573;50.948;11.600;2022-08-21T07:18:17;49.20;;;25.13;;
18881;SDS011;9573;50.948;11.600;2022-08-21T07:20:44;47.40;;;25.03;;
18881;SDS011;9573;50.948;11.600;2022-08-21T07:23:27;47.63;;;23.00;;
18881;SDS011;9573;50.948;11.600;2022-08-21T07:25:58;45.17;;;22.53;;
18881;SDS011;9573;50.948;11.600;2022-08-21T07:28:26;47.90;;;23.97;;
18881;SDS011;9573;50.948;11.600;2022-08-21T07:30:56;42.03;;;21.87;;
18881;SDS011;9573;50.948;11.600;2022-08-21T07:33:28;44.57;;;23.43;;
18881;SDS011;9573;50.948;11.600;2022-08-21T07:35:58;41.87;;;21.47;;
18881;SDS011;9573;50.948;11.600;2022-08-21T07:38:26;41.10;;;21.60;;
18881;SDS011;9573;50.948;11.600;2022-08-21T07:40:54;43.87;;;21.60;;
18881;SDS011;9573;50.948;11.600;2022-08-21T07:43:25;41.17;;;20.87;;
18881;SDS011;9573;50.948;11.600;2022-08-21T07:45:53;39.30;;;19.73;;
18881;SDS011;9573;50.948;11.600;2022-08-21T07:48:20;37.00;;;18.70;;
18881;SDS011;9573;50.948;11.600;2022-08-21T07:50:48;35.37;;;18.97;;
18881;SDS011;9573;50.948;11.600;2022-08-21T07:53:16;37.80;;;19.17;;
18881;SDS011;9573;50.948;11.600;2022-08-21T07:55:43;38.97;;;19.20;;
18881;SDS011;9573;50.948;11.600;2022-08-21T07:58:10;33.67;;;17.90;;
18881;SDS011;9573;50.948;11.600;2022-08-21T08:00:39;34.25;;;17.48;;
18881;SDS011;9573;50.948;11.600;2022-08-21T08:03:07;33.17;;;16.60;;
18881;SDS011;9573;50.948;11.600;2022-08-21T08:05:34;33.08;;;16.33;;
18881;SDS011;9573;50.948;11.600;2022-08-21T08:08:02;30.30;;;16.08;;
18881;SDS011;9573;50.948;11.600;2022-08-21T08:10:29;28.65;;;14.88;;
18881;SDS011;9573;50.948;11.600;2022-08-21T08:12:56;29.17;;;14.77;;
18881;SDS011;9573;50.948;11.600;2022-08-21T08:15:25;28.45;;;14.15;;
18881;SDS011;9573;50.948;11.600;2022-08-21T08:17:55;25.23;;;13.40;;
18881;SDS011;9573;50.948;11.600;2022-08-21T08:20:22;29.67;;;14.30;;
18881;SDS011;9573;50.948;11.600;2022-08-21T08:22:51;26.90;;;14.00;;
18881;SDS011;9573;50.948;11.600;2022-08-21T08:25:20;25.40;;;13.50;;
18881;SDS011;9573;50.948;11.600;2022-08-21T08:27:49;26.37;;;13.00;;
18881;SDS011;9573;50.948;11.600;2022-08-21T08:30:17;27.33;;;12.97;;
18881;SDS011;9573;50.948;11.600;2022-08-21T08:32:46;24.93;;;12.37;;
18881;SDS011;9573;50.948;11.600;2022-08-21T08:35:16;27.00;;;12.77;;
18881;SDS011;9573;50.948;11.600;2022-08-21T08:37:43;25.47;;;12.40;;
18881;SDS011;9573;50.948;11.600;2022-08-21T08:40:13;34.37;;;12.77;;
18881;SDS011;9573;50.948;11.600;2022-08-21T08:42:47;25.57;;;12.37;;
18881;SDS011;9573;50.948;11.600;2022-08-21T08:45:17;25.90;;;11.83;;
18881;SDS011;9573;50.948;11.600;2022-08-21T08:47:49;27.23;;;12.70;;
18881;SDS011;9573;50.948;11.600;2022-08-21T08:50:25;26.93;;;12.33;;
18881;SDS011;9573;50.948;11.600;2022-08-21T08:53:00;25.33;;;12.03;;
18881;SDS011;9573;50.948;11.600;2022-08-21T08:55:33;24.93;;;11.97;;
18881;SDS011;9573;50.948;11.600;2022-08-21T08:58:04;26.30;;;12.33;;
18881;SDS011;9573;50.948;11.600;2022-08-21T09:00:32;25.97;;;12.00;;
18881;SDS011;9573;50.948;11.600;2022-08-21T09:03:00;25.27;;;10.10;;
18881;SDS011;9573;50.948;11.600;2022-08-21T09:05:32;22.27;;;9.93;;
18881;SDS011;9573;50.948;11.600;2022-08-21T09:08:24;22.60;;;10.00;;
18881;SDS011;9573;50.948;11.600;2022-08-21T09:11:10;22.40;;;9.47;;
18881;SDS011;9573;50.948;11.600;2022-08-21T09:13:47;21.43;;;9.07;;
18881;SDS011;9573;50.948;11.600;2022-08-21T09:16:26;16.67;;;7.80;;
18881;SDS011;9573;50.948;11.600;2022-08-21T09:19:08;19.20;;;7.87;;
18881;SDS011;9573;50.948;11.600;2022-08-21T09:22:03;20.23;;;8.37;;
18881;SDS011;9573;50.948;11.600;2022-08-21T09:24:38;18.27;;;7.33;;
18881;SDS011;9573;50.948;11.600;2022-08-21T09:27:17;18.43;;;7.73;;
18881;SDS011;9573;50.948;11.600;2022-08-21T09:29:46;13.65;;;6.65;;
18881;SDS011;9573;50.948;11.600;2022-08-21T09:32:19;20.95;;;7.60;;
18881;SDS011;9573;50.948;11.600;2022-08-21T09:34:59;14.80;;;6.38;;
18881;SDS011;9573;50.948;11.600;2022-08-21T09:37:33;16.70;;;6.53;;
18881;SDS011;9573;50.948;11.600;2022-08-21T09:40:18;16.27;;;7.32;;
18881;SDS011;9573;50.948;11.600;2022-08-21T09:42:59;17.60;;;6.65;;
18881;SDS011;9573;50.948;11.600;2022-08-21T09:45:31;17.08;;;6.72;;
18881;SDS011;9573;50.948;11.600;2022-08-21T09:48:10;12.45;;;5.55;;
18881;SDS011;9573;50.948;11.600;2022-08-21T09:50:39;14.70;;;6.50;;
18881;SDS011;9573;50.948;11.600;2022-08-21T09:53:15;12.77;;;5.75;;
18881;SDS011;9573;50.948;11.600;2022-08-21T09:55:48;9.77;;;5.03;;
18881;SDS011;9573;50.948;11.600;2022-08-21T09:58:37;18.17;;;5.20;;
18881;SDS011;9573;50.948;11.600;2022-08-21T10:01:11;12.18;;;4.70;;
18881;SDS011;9573;50.948;11.600;2022-08-21T10:03:42;12.52;;;4.50;;
18881;SDS011;9573;50.948;11.600;2022-08-21T10:06:09;13.00;;;4.40;;
18881;SDS011;9573;50.948;11.600;2022-08-21T10:08:47;10.85;;;4.10;;
18881;SDS011;9573;50.948;11.600;2022-08-21T10:11:15;10.10;;;4.00;;
18881;SDS011;9573;50.948;11.600;2022-08-21T10:13:47;12.50;;;4.05;;
18881;SDS011;9573;50.948;11.600;2022-08-21T10:16:25;10.35;;;3.10;;
18881;SDS011;9573;50.948;11.600;2022-08-21T10:19:06;11.55;;;3.30;;
18881;SDS011;9573;50.948;11.600;2022-08-21T10:21:43;12.20;;;3.60;;
18881;SDS011;9573;50.948;11.600;2022-08-21T10:24:31;9.77;;;3.28;;
18881;SDS011;9573;50.948;11.600;2022-08-21T10:27:07;11.35;;;3.33;;
18881;SDS011;9573;50.948;11.600;2022-08-21T10:29:48;8.77;;;3.17;;
18881;SDS011;9573;50.948;11.600;2022-08-21T10:32:37;6.18;;;3.33;;
18881;SDS011;9573;50.948;11.600;2022-08-21T10:35:23;11.57;;;3.35;;
18881;SDS011;9573;50.948;11.600;2022-08-21T10:37:59;7.28;;;3.50;;
18881;SDS011;9573;50.948;11.600;2022-08-21T10:41:02;8.68;;;3.53;;
18881;SDS011;9573;50.948;11.600;2022-08-21T10:43:38;9.55;;;3.53;;
18881;SDS011;9573;50.948;11.600;2022-08-21T10:46:17;9.82;;;3.30;;
18881;SDS011;9573;50.948;11.600;2022-08-21T10:48:59;7.63;;;3.47;;
18881;SDS011;9573;50.948;11.600;2022-08-21T10:51:52;8.52;;;3.45;;
18881;SDS011;9573;50.948;11.600;2022-08-21T10:54:37;8.43;;;3.50;;
18881;SDS011;9573;50.948;11.600;2022-08-21T10:57:14;10.00;;;3.70;;
18881;SDS011;9573;50.948;11.600;2022-08-21T10:59:47;9.95;;;3.65;;
18881;SDS011;9573;50.948;11.600;2022-08-21T11:02:20;8.15;;;3.80;;
18881;SDS011;9573;50.948;11.600;2022-08-21T11:04:56;10.75;;;3.95;;
18881;SDS011;9573;50.948;11.600;2022-08-21T11:07:30;13.98;;;5.97;;
18881;SDS011;9573;50.948;11.600;2022-08-21T11:10:04;10.18;;;3.80;;
18881;SDS011;9573;50.948;11.600;2022-08-21T11:12:43;8.82;;;3.40;;
18881;SDS011;9573;50.948;11.600;2022-08-21T11:15:18;7.43;;;3.50;;
18881;SDS011;9573;50.948;11.600;2022-08-21T11:17:59;8.52;;;3.30;;
18881;SDS011;9573;50.948;11.600;2022-08-21T11:20:40;10.55;;;3.75;;
18881;SDS011;9573;50.948;11.600;2022-08-21T11:23:16;10.95;;;3.40;;
18881;SDS011;9573;50.948;11.600;2022-08-21T11:25:50;10.65;;;3.95;;
18881;SDS011;9573;50.948;11.600;2022-08-21T11:28:26;7.05;;;3.00;;
18881;SDS011;9573;50.948;11.600;2022-08-21T11:31:11;6.82;;;3.38;;
18881;SDS011;9573;50.948;11.600;2022-08-21T11:34:05;7.53;;;3.08;;
18881;SDS011;9573;50.948;11.600;2022-08-21T11:36:50;8.15;;;3.50;;
18881;SDS011;9573;50.948;11.600;2022-08-21T11:39:25;6.50;;;3.38;;
18881;SDS011;9573;50.948;11.600;2022-08-21T11:42:02;8.93;;;3.25;;
18881;SDS011;9573;50.948;11.600;2022-08-21T11:44:43;10.05;;;3.15;;
18881;SDS011;9573;50.948;11.600;2022-08-21T11:47:20;8.38;;;3.10;;
18881;SDS011;9573;50.948;11.600;2022-08-21T11:50:02;6.53;;;3.10;;
18881;SDS011;9573;50.948;11.600;2022-08-21T11:52:40;14.82;;;3.22;;
18881;SDS011;9573;50.948;11.600;2022-08-21T11:55:12;6.28;;;2.72;;
18881;SDS011;9573;50.948;11.600;2022-08-21T11:57:46;9.65;;;3.08;;
18881;SDS011;9573;50.948;11.600;2022-08-21T12:00:23;8.02;;;3.00;;
18881;SDS011;9573;50.948;11.600;2022-08-21T12:02:56;12.45;;;3.20;;
18881;SDS011;9573;50.948;11.600;2022-08-21T12:05:34;8.63;;;3.63;;
18881;SDS011;9573;50.948;11.600;2022-08-21T12:08:08;6.30;;;3.17;;
18881;SDS011;9573;50.948;11.600;2022-08-21T12:10:40;14.55;;;3.63;;
18881;SDS011;9573;50.948;11.600;2022-08-21T12:13:27;11.20;;;3.50;;
18881;SDS011;9573;50.948;11.600;2022-08-21T12:16:06;9.10;;;3.13;;
18881;SDS011;9573;50.948;11.600;2022-08-21T12:18:36;12.60;;;3.58;;
18881;SDS011;9573;50.948;11.600;2022-08-21T12:21:05;12.35;;;3.40;;
18881;SDS011;9573;50.948;11.600;2022-08-21T12:23:47;14.63;;;3.60;;
18881;SDS011;9573;50.948;11.600;2022-08-21T12:26:27;6.57;;;3.35;;
18881;SDS011;9573;50.948;11.600;2022-08-21T12:29:04;13.43;;;3.58;;
18881;SDS011;9573;50.948;11.600;2022-08-21T12:31:49;11.80;;;3.75;;
18881;SDS011;9573;50.948;11.600;2022-08-21T12:34:22;7.35;;;3.58;;
18881;SDS011;9573;50.948;11.600;2022-08-21T12:36:57;9.70;;;3.40;;
18881;SDS011;9573;50.948;11.600;2022-08-21T12:39:27;13.38;;;3.58;;
18881;SDS011;9573;50.948;11.600;2022-08-21T12:41:59;8.43;;;3.40;;
18881;SDS011;9573;50.948;11.600;2022-08-21T12:44:34;8.93;;;3.47;;
18881;SDS011;9573;50.948;11.600;2022-08-21T12:47:14;8.70;;;3.30;;
18881;SDS011;9573;50.948;11.600;2022-08-21T12:49:52;9.77;;;3.42;;
18881;SDS011;9573;50.948;11.600;2022-08-21T12:52:24;8.60;;;3.42;;
18881;SDS011;9573;50.948;11.600;2022-08-21T12:54:57;7.68;;;3.60;;
18881;SDS011;9573;50.948;11.600;2022-08-21T12:57:27;10.35;;;3.75;;
18881;SDS011;9573;50.948;11.600;2022-08-21T12:59:56;9.20;;;3.63;;
18881;SDS011;9573;50.948;11.600;2022-08-21T13:02:30;9.77;;;3.30;;
18881;SDS011;9573;50.948;11.600;2022-08-21T13:05:05;10.00;;;3.55;;
18881;SDS011;9573;50.948;11.600;2022-08-21T13:07:37;10.30;;;3.67;;
18881;SDS011;9573;50.948;11.600;2022-08-21T13:10:14;6.28;;;3.63;;
18881;SDS011;9573;50.948;11.600;2022-08-21T13:12:47;10.82;;;3.80;;
18881;SDS011;9573;50.948;11.600;2022-08-21T13:15:21;8.40;;;3.30;;
18881;SDS011;9573;50.948;11.600;2022-08-21T13:17:53;7.88;;;3.47;;
18881;SDS011;9573;50.948;11.600;2022-08-21T13:20:27;8.32;;;3.60;;
18881;SDS011;9573;50.948;11.600;2022-08-21T13:22:57;11.07;;;3.58;;
18881;SDS011;9573;50.948;11.600;2022-08-21T13:25:26;7.40;;;3.63;;
18881;SDS011;9573;50.948;11.600;2022-08-21T13:27:58;9.48;;;3.50;;
18881;SDS011;9573;50.948;11.600;2022-08-21T13:30:31;6.65;;;3.35;;
18881;SDS011;9573;50.948;11.600;2022-08-21T13:33:00;10.73;;;3.58;;
18881;SDS011;9573;50.948;11.600;2022-08-21T13:35:35;9.05;;;3.60;;
18881;SDS011;9573;50.948;11.600;2022-08-21T13:38:13;7.10;;;3.38;;
18881;SDS011;9573;50.948;11.600;2022-08-21T13:40:44;8.13;;;3.45;;
18881;SDS011;9573;50.948;11.600;2022-08-21T13:43:16;8.50;;;3.45;;
18881;SDS011;9573;50.948;11.600;2022-08-21T13:45:47;8.55;;;3.53;;
18881;SDS011;9573;50.948;11.600;2022-08-21T13:48:21;8.02;;;3.47;;
18881;SDS011;9573;50.948;11.600;2022-08-21T13:50:51;9.00;;;3.58;;
18881;SDS011;9573;50.948;11.600;2022-08-21T13:53:20;8.10;;;3.20;;
18881;SDS011;9573;50.948;11.600;2022-08-21T13:55:54;9.40;;;3.28;;
18881;SDS011;9573;50.948;11.600;2022-08-21T13:58:25;12.10;;;3.30;;
18881;SDS011;9573;50.948;11.600;2022-08-21T14:00:55;9.77;;;3.38;;
18881;SDS011;9573;50.948;11.600;2022-08-21T14:03:33;7.22;;;3.00;;
18881;SDS011;9573;50.948;11.600;2022-08-21T14:06:10;7.18;;;3.10;;
18881;SDS011;9573;50.948;11.600;2022-08-21T14:08:39;6.93;;;2.88;;
18881;SDS011;9573;50.948;11.600;2022-08-21T14:11:09;6.82;;;3.20;;
18881;SDS011;9573;50.948;11.600;2022-08-21T14:13:39;8.73;;;3.00;;
18881;SDS011;9573;50.948;11.600;2022-08-21T14:16:11;7.30;;;3.20;;
18881;SDS011;9573;50.948;11.600;2022-08-21T14:18:45;6.35;;;2.75;;
18881;SDS011;9573;50.948;11.600;2022-08-21T14:21:23;8.50;;;3.00;;
18881;SDS011;9573;50.948;11.600;2022-08-21T14:24:04;7.57;;;3.35;;
18881;SDS011;9573;50.948;11.600;2022-08-21T14:26:36;7.35;;;3.08;;
18881;SDS011;9573;50.948;11.600;2022-08-21T14:29:11;7.63;;;3.20;;
18881;SDS011;9573;50.948;11.600;2022-08-21T14:31:41;7.90;;;3.25;;
18881;SDS011;9573;50.948;11.600;2022-08-21T14:34:13;11.52;;;3.30;;
18881;SDS011;9573;50.948;11.600;2022-08-21T14:36:42;6.80;;;3.28;;
18881;SDS011;9573;50.948;11.600;2022-08-21T14:39:09;7.20;;;3.08;;
18881;SDS011;9573;50.948;11.600;2022-08-21T14:41:36;10.90;;;3.30;;
18881;SDS011;9573;50.948;11.600;2022-08-21T14:44:04;9.48;;;3.15;;
18881;SDS011;9573;50.948;11.600;2022-08-21T14:46:32;7.32;;;3.22;;
18881;SDS011;9573;50.948;11.600;2022-08-21T14:49:00;6.82;;;2.90;;
18881;SDS011;9573;50.948;11.600;2022-08-21T14:51:29;6.65;;;2.90;;
18881;SDS011;9573;50.948;11.600;2022-08-21T14:53:56;7.72;;;3.15;;